createdAt,value
2018-12-26T00:00:23.168Z,75.90
2018-12-26T00:02:56.515Z,75.99
2018-12-26T00:05:28.171Z,75.60
2018-12-26T00:07:59.944Z,75.90
2018-12-26T00:10:37.086Z,75.79
2018-12-26T00:13:25.652Z,75.43
2018-12-26T00:16:01.900Z,75.46
2018-12-26T00:18:34.347Z,74.78
2018-12-26T00:21:06.013Z,75.11
2018-12-26T00:23:37.744Z,74.93
2018-12-26T00:26:09.335Z,75.38
2018-12-26T00:28:40.892Z,75.27
2018-12-26T00:31:12.484Z,75.12
2018-12-26T00:33:45.250Z,75.36
2018-12-26T00:36:16.918Z,74.54
2018-12-26T00:38:48.492Z,74.84
2018-12-26T00:41:20.078Z,74.93
2018-12-26T00:43:51.651Z,74.86
2018-12-26T00:46:23.322Z,73.95
2018-12-26T00:48:54.928Z,74.12
2018-12-26T00:51:26.637Z,74.38
2018-12-26T00:53:58.284Z,73.56
2018-12-26T00:56:29.894Z,73.62
2018-12-26T00:59:01.520Z,73.17
2018-12-26T01:01:33.202Z,73.06
2018-12-26T01:04:05.876Z,72.22
2018-12-26T01:06:37.484Z,72.01
2018-12-26T01:09:09.964Z,71.23
2018-12-26T01:11:41.566Z,71.22
2018-12-26T01:14:13.153Z,71.23
2018-12-26T01:16:44.825Z,70.64
2018-12-26T01:19:16.413Z,70.05
2018-12-26T01:21:48.000Z,69.75
2018-12-26T01:24:19.612Z,69.30
2018-12-26T01:26:51.198Z,69.64
2018-12-26T01:29:22.802Z,69.67
2018-12-26T01:31:54.429Z,68.71
2018-12-26T01:34:26.098Z,68.58
2018-12-26T01:36:57.708Z,68.64
2018-12-26T01:39:29.282Z,68.45
2018-12-26T01:42:00.939Z,67.73
2018-12-26T01:44:32.594Z,68.29
2018-12-26T01:47:04.218Z,68.55
2018-12-26T01:49:35.960Z,68.29
2018-12-26T01:52:07.692Z,68.15
2018-12-26T01:54:39.415Z,68.34
2018-12-26T01:57:11.107Z,68.08
2018-12-26T01:59:42.802Z,68.63
2018-12-26T02:02:14.499Z,68.41
2018-12-26T02:04:46.080Z,68.82
2018-12-26T02:07:17.898Z,68.26
2018-12-26T02:09:49.503Z,68.38
2018-12-26T02:12:21.111Z,68.66
2018-12-26T02:14:52.803Z,68.40
2018-12-26T02:17:24.384Z,68.19
2018-12-26T02:19:56.089Z,68.07
2018-12-26T02:22:27.797Z,68.40
2018-12-26T02:24:59.395Z,67.78
2018-12-26T02:27:30.931Z,67.57
2018-12-26T02:30:02.560Z,67.70
2018-12-26T02:32:34.171Z,68.29
2018-12-26T02:35:05.959Z,68.36
2018-12-26T02:37:37.570Z,67.96
2018-12-26T02:40:09.300Z,68.03
2018-12-26T02:42:40.926Z,68.38
2018-12-26T02:45:12.523Z,68.06
2018-12-26T02:47:44.085Z,67.91
2018-12-26T02:50:15.651Z,67.80
2018-12-26T02:52:47.615Z,68.05
2018-12-26T02:55:19.167Z,67.21
2018-12-26T02:57:50.863Z,67.81
2018-12-26T03:00:22.460Z,67.65
2018-12-26T03:02:54.052Z,67.63
2018-12-26T03:05:25.614Z,67.95
2018-12-26T03:07:57.200Z,67.82
2018-12-26T03:10:28.826Z,67.87
2018-12-26T03:13:00.455Z,67.59
2018-12-26T03:15:32.054Z,67.72
2018-12-26T03:18:03.655Z,67.51
2018-12-26T03:20:35.284Z,67.47
2018-12-26T03:23:07.025Z,67.20
2018-12-26T03:25:38.594Z,67.17
2018-12-26T03:28:10.262Z,67.54
2018-12-26T03:30:41.908Z,67.40
2018-12-26T03:33:13.698Z,67.04
2018-12-26T03:35:45.318Z,67.20
2018-12-26T03:38:17.114Z,67.11
2018-12-26T03:40:48.653Z,67.37
2018-12-26T03:43:20.216Z,67.90
2018-12-26T03:45:52.200Z,68.31
2018-12-26T03:48:23.937Z,67.91
2018-12-26T03:50:55.545Z,68.28
2018-12-26T03:53:27.169Z,68.40
2018-12-26T03:55:58.917Z,68.16
2018-12-26T03:58:30.528Z,68.39
2018-12-26T04:01:02.147Z,67.59
2018-12-26T04:03:33.759Z,67.71
2018-12-26T04:06:05.369Z,67.78
2018-12-26T04:08:37.050Z,67.65
2018-12-26T04:11:09.388Z,67.47
2018-12-26T04:13:41.064Z,67.55
2018-12-26T04:16:12.782Z,67.64
2018-12-26T04:18:44.379Z,68.00
2018-12-26T04:21:16.045Z,68.31
2018-12-26T04:23:47.700Z,67.88
2018-12-26T04:26:19.288Z,68.14
2018-12-26T04:28:51.064Z,68.03
2018-12-26T04:31:22.855Z,68.38
2018-12-26T04:33:54.448Z,68.45
2018-12-26T04:36:26.025Z,68.38
2018-12-26T04:38:57.628Z,68.94
2018-12-26T04:41:30.941Z,68.89
2018-12-26T04:44:02.568Z,68.71
2018-12-26T04:46:34.175Z,69.04
2018-12-26T04:49:05.996Z,68.86
2018-12-26T04:51:37.558Z,68.78
2018-12-26T04:54:09.243Z,68.36
2018-12-26T04:56:40.839Z,67.91
2018-12-26T04:59:12.441Z,67.37
2018-12-26T05:01:44.045Z,67.46
2018-12-26T05:04:15.659Z,67.49
2018-12-26T05:06:48.436Z,67.55
2018-12-26T05:09:20.092Z,67.53
2018-12-26T05:11:51.816Z,67.40
2018-12-26T05:14:23.440Z,67.38
2018-12-26T05:16:55.245Z,67.75
2018-12-26T05:19:26.829Z,67.70
2018-12-26T05:21:58.437Z,67.88
2018-12-26T05:24:30.032Z,68.38
2018-12-26T05:27:01.768Z,68.25
2018-12-26T05:29:34.191Z,68.39
2018-12-26T05:32:06.005Z,68.35
2018-12-26T05:34:37.554Z,68.21
2018-12-26T05:37:09.238Z,68.21
2018-12-26T05:39:40.971Z,68.85
2018-12-26T05:42:12.580Z,68.84
2018-12-26T05:44:44.140Z,68.71
2018-12-26T05:47:15.818Z,68.78
2018-12-26T05:49:47.486Z,68.76
2018-12-26T05:52:19.165Z,68.86
2018-12-26T05:54:51.553Z,68.74
2018-12-26T05:57:23.314Z,68.96
2018-12-26T05:59:56.460Z,69.12
2018-12-26T06:02:28.871Z,69.14
2018-12-26T06:05:00.580Z,69.57
2018-12-26T06:07:32.321Z,69.56
2018-12-26T06:10:03.924Z,69.46
2018-12-26T06:12:35.591Z,69.13
2018-12-26T06:15:07.218Z,69.06
2018-12-26T06:17:38.880Z,69.11
2018-12-26T06:20:10.586Z,69.36
2018-12-26T06:22:42.282Z,69.54
2018-12-26T06:25:15.302Z,69.08
2018-12-26T06:27:51.450Z,69.23
2018-12-26T06:30:20.180Z,69.29
2018-12-26T06:32:51.855Z,68.94
2018-12-26T06:35:23.478Z,68.63
2018-12-26T06:37:56.263Z,67.90
2018-12-26T06:40:27.930Z,67.85
2018-12-26T06:42:59.522Z,67.98
2018-12-26T06:45:31.261Z,68.18
2018-12-26T06:48:03.111Z,68.03
2018-12-26T06:50:34.854Z,67.89
2018-12-26T06:53:06.508Z,67.96
2018-12-26T06:55:38.310Z,67.82
2018-12-26T06:58:10.152Z,67.98
2018-12-26T07:00:41.990Z,68.10
2018-12-26T07:03:13.759Z,67.91
2018-12-26T07:05:45.484Z,68.38
2018-12-26T07:08:19.180Z,67.91
2018-12-26T07:10:50.793Z,68.30
2018-12-26T07:13:22.413Z,67.14
2018-12-26T07:15:54.043Z,67.40
2018-12-26T07:18:31.958Z,67.35
2018-12-26T07:21:13.241Z,66.11
2018-12-26T07:23:44.957Z,66.91
2018-12-26T07:26:24.669Z,66.78
2018-12-26T07:29:00.999Z,67.15
2018-12-26T07:31:32.842Z,67.19
2018-12-26T07:34:04.607Z,67.05
2018-12-26T07:36:36.289Z,67.23
2018-12-26T07:39:09.244Z,67.56
2018-12-26T07:41:40.839Z,66.95
2018-12-26T07:44:12.431Z,67.28
2018-12-26T07:46:44.086Z,67.87
2018-12-26T07:49:15.690Z,67.83
2018-12-26T07:51:47.262Z,68.01
2018-12-26T07:54:20.708Z,67.64
2018-12-26T07:56:52.581Z,67.48
2018-12-26T07:59:24.300Z,67.79
2018-12-26T08:01:55.971Z,67.62
2018-12-26T08:04:27.726Z,67.38
2018-12-26T08:06:59.369Z,67.46
2018-12-26T08:09:31.093Z,67.90
2018-12-26T08:12:02.796Z,67.98
2018-12-26T08:14:34.413Z,67.92
2018-12-26T08:17:06.118Z,67.75
2018-12-26T08:19:37.690Z,67.82
2018-12-26T08:22:09.391Z,67.59
2018-12-26T08:24:41.060Z,67.56
2018-12-26T08:27:12.697Z,67.65
2018-12-26T08:29:44.323Z,67.70
2018-12-26T08:32:15.893Z,67.87
2018-12-26T08:34:47.526Z,67.66
2018-12-26T08:37:19.234Z,68.08
2018-12-26T08:39:50.931Z,68.04
2018-12-26T08:42:22.599Z,68.18
2018-12-26T08:44:55.177Z,68.10
2018-12-26T08:47:26.741Z,67.87
2018-12-26T08:49:58.404Z,68.17
2018-12-26T08:52:31.460Z,67.96
2018-12-26T08:55:03.581Z,68.36
2018-12-26T08:57:35.697Z,68.36
2018-12-26T09:00:08.410Z,68.29
2018-12-26T09:02:40.131Z,68.40
2018-12-26T09:05:12.063Z,68.29
2018-12-26T09:07:43.669Z,68.43
2018-12-26T09:10:15.293Z,68.24
2018-12-26T09:12:48.072Z,68.47
2018-12-26T09:15:19.814Z,68.86
2018-12-26T09:17:51.415Z,68.71
2018-12-26T09:20:23.017Z,68.75
2018-12-26T09:22:54.634Z,68.41
2018-12-26T09:25:26.871Z,68.57
2018-12-26T09:28:01.656Z,68.44
2018-12-26T09:30:34.450Z,68.32
2018-12-26T09:33:06.495Z,68.34
2018-12-26T09:35:39.421Z,67.88
2018-12-26T09:38:11.083Z,67.90
2018-12-26T09:40:43.033Z,67.96
2018-12-26T09:43:14.660Z,67.61
2018-12-26T09:45:46.255Z,67.55
2018-12-26T09:48:17.830Z,67.44
2018-12-26T09:50:49.456Z,67.55
2018-12-26T09:53:21.066Z,68.13
2018-12-26T09:55:52.689Z,68.27
2018-12-26T09:58:24.292Z,68.50
2018-12-26T10:00:55.961Z,68.48
2018-12-26T10:03:27.521Z,68.42
2018-12-26T10:05:59.126Z,68.88
2018-12-26T10:08:30.765Z,68.82
2018-12-26T10:11:02.404Z,68.93
2018-12-26T10:13:33.975Z,69.15
2018-12-26T10:16:05.659Z,69.14
2018-12-26T10:18:37.328Z,69.09
2018-12-26T10:21:08.904Z,69.96
2018-12-26T10:23:40.628Z,70.22
2018-12-26T10:26:12.220Z,70.26
2018-12-26T10:28:43.872Z,70.40
2018-12-26T10:31:16.718Z,70.17
2018-12-26T10:33:48.332Z,70.53
2018-12-26T10:36:19.955Z,70.87
2018-12-26T10:38:51.569Z,70.66
2018-12-26T10:41:23.200Z,70.79
2018-12-26T10:43:55.012Z,70.83
2018-12-26T10:46:26.579Z,71.28
2018-12-26T10:48:58.315Z,70.93
2018-12-26T10:51:30.006Z,71.22
2018-12-26T10:54:01.583Z,71.33
2018-12-26T10:56:33.213Z,70.79
2018-12-26T10:59:10.113Z,70.98
2018-12-26T11:01:38.440Z,70.81
2018-12-26T11:04:10.119Z,71.07
2018-12-26T11:06:43.526Z,70.94
2018-12-26T11:09:15.114Z,70.90
2018-12-26T11:11:46.927Z,70.51
2018-12-26T11:14:18.661Z,70.51
2018-12-26T11:16:51.832Z,70.71
2018-12-26T11:19:23.696Z,70.33
2018-12-26T11:21:55.629Z,70.42
2018-12-26T11:24:27.332Z,70.63
2018-12-26T11:26:58.923Z,70.64
2018-12-26T11:29:30.545Z,70.57
2018-12-26T11:32:02.101Z,70.28
2018-12-26T11:34:33.902Z,70.29
2018-12-26T11:37:05.418Z,70.20
2018-12-26T11:39:37.167Z,70.28
2018-12-26T11:42:08.798Z,70.27
2018-12-26T11:44:40.570Z,69.88
2018-12-26T11:47:12.210Z,69.28
2018-12-26T11:49:43.810Z,69.45
2018-12-26T11:52:15.540Z,69.05
2018-12-26T11:54:47.171Z,68.85
2018-12-26T11:57:18.943Z,68.65
2018-12-26T11:59:50.533Z,68.79
2018-12-26T12:02:22.119Z,68.80
2018-12-26T12:04:53.782Z,69.10
2018-12-26T12:07:25.453Z,69.91
2018-12-26T12:10:00.192Z,69.91
2018-12-26T12:12:31.751Z,71.61
2018-12-26T12:15:04.501Z,72.86
2018-12-26T12:17:36.617Z,73.32
2018-12-26T12:20:10.701Z,73.40
2018-12-26T12:22:47.781Z,73.71
2018-12-26T12:25:22.667Z,73.71
2018-12-26T12:28:17.091Z,73.98
2018-12-26T12:31:41.600Z,74.06
2018-12-26T12:34:13.464Z,74.23
2018-12-26T12:36:45.185Z,74.12
2018-12-26T12:39:16.783Z,73.90
2018-12-26T12:41:48.386Z,74.08
2018-12-26T12:44:21.579Z,73.28
2018-12-26T12:46:53.338Z,73.26
2018-12-26T12:49:25.083Z,73.13
2018-12-26T12:51:56.767Z,73.80
2018-12-26T12:54:28.378Z,73.66
2018-12-26T12:57:00.105Z,73.31
2018-12-26T12:59:31.860Z,73.88
2018-12-26T13:02:04.567Z,73.46
2018-12-26T13:04:36.309Z,73.41
2018-12-26T13:07:07.991Z,73.21
2018-12-26T13:09:39.711Z,73.36
2018-12-26T13:12:11.284Z,73.50
2018-12-26T13:14:42.987Z,73.32
2018-12-26T13:17:14.930Z,72.82
2018-12-26T13:19:46.688Z,72.43
2018-12-26T13:22:18.254Z,72.73
2018-12-26T13:24:50.019Z,72.38
2018-12-26T13:27:21.906Z,71.89
2018-12-26T13:29:54.709Z,72.02
2018-12-26T13:32:29.662Z,71.71
2018-12-26T13:35:01.373Z,72.22
2018-12-26T13:37:41.864Z,71.95
2018-12-26T13:40:13.518Z,72.28
2018-12-26T13:42:45.177Z,71.44
2018-12-26T13:45:16.839Z,71.89
2018-12-26T13:47:49.487Z,72.08
2018-12-26T13:50:21.198Z,71.62
2018-12-26T13:52:52.822Z,71.67
2018-12-26T13:55:24.417Z,72.15
2018-12-26T13:57:56.955Z,72.04
2018-12-26T14:00:37.175Z,71.95
2018-12-26T14:03:08.971Z,72.41
2018-12-26T14:05:42.323Z,72.45
2018-12-26T14:08:14.133Z,72.41
2018-12-26T14:10:45.959Z,72.99
2018-12-26T14:13:17.602Z,72.41
2018-12-26T14:15:49.366Z,72.78
2018-12-26T14:18:21.134Z,72.84
2018-12-26T14:20:52.820Z,72.73
2018-12-26T14:23:24.522Z,73.29
2018-12-26T14:25:56.214Z,73.48
2018-12-26T14:28:28.026Z,73.24
2018-12-26T14:30:59.680Z,74.17
2018-12-26T14:33:31.483Z,74.29
2018-12-26T14:36:03.473Z,74.21
2018-12-26T14:38:35.395Z,74.73
2018-12-26T14:41:07.035Z,75.61
2018-12-26T14:43:38.605Z,76.17
2018-12-26T14:46:10.187Z,76.56
2018-12-26T14:48:41.749Z,77.07
2018-12-26T14:51:13.312Z,77.09
2018-12-26T14:53:44.921Z,77.71
2018-12-26T14:56:16.544Z,77.75
2018-12-26T14:58:48.132Z,78.14
2018-12-26T15:01:19.760Z,78.26
2018-12-26T15:03:51.398Z,78.32
2018-12-26T15:06:23.022Z,78.37
2018-12-26T15:08:54.721Z,78.43
2018-12-26T15:11:26.656Z,78.57
2018-12-26T15:13:58.333Z,78.58
2018-12-26T15:16:30.038Z,78.47
2018-12-26T15:19:18.835Z,78.09
2018-12-26T15:21:50.474Z,78.85
2018-12-26T15:24:22.071Z,77.98
2018-12-26T15:26:53.631Z,77.91
2018-12-26T15:29:25.240Z,77.23
2018-12-26T15:31:56.882Z,78.49
2018-12-26T15:34:28.561Z,77.72
2018-12-26T15:37:00.227Z,77.71
2018-12-26T15:39:31.830Z,77.20
2018-12-26T15:42:03.455Z,77.95
2018-12-26T15:44:35.095Z,77.45
2018-12-26T15:47:06.745Z,77.70
2018-12-26T15:49:38.400Z,77.96
2018-12-26T15:52:10.163Z,78.42
2018-12-26T15:54:43.051Z,79.29
2018-12-26T15:57:14.796Z,79.57
2018-12-26T15:59:46.366Z,79.68
2018-12-26T16:02:18.071Z,79.72
2018-12-26T16:04:49.641Z,79.81
2018-12-26T16:07:21.234Z,80.04
2018-12-26T16:09:52.831Z,80.07
2018-12-26T16:12:24.472Z,80.16
2018-12-26T16:14:56.029Z,80.52
2018-12-26T16:17:27.601Z,80.14
2018-12-26T16:19:59.295Z,80.03
2018-12-26T16:22:31.018Z,80.17
2018-12-26T16:25:02.668Z,80.08
2018-12-26T16:27:34.264Z,79.77
2018-12-26T16:30:06.592Z,80.40
2018-12-26T16:32:38.275Z,80.01
2018-12-26T16:35:10.757Z,80.48
2018-12-26T16:37:42.434Z,80.55
2018-12-26T16:40:14.102Z,80.07
2018-12-26T16:42:45.722Z,79.69
2018-12-26T16:45:17.362Z,79.27
2018-12-26T16:47:48.971Z,78.67
2018-12-26T16:50:27.027Z,78.63
2018-12-26T16:52:54.057Z,78.04
2018-12-26T16:55:25.712Z,77.48
2018-12-26T16:57:57.338Z,77.29
2018-12-26T17:00:29.076Z,77.32
2018-12-26T17:03:00.837Z,76.93
2018-12-26T17:05:32.668Z,77.07
2018-12-26T17:08:04.631Z,76.88
2018-12-26T17:10:36.535Z,76.40
2018-12-26T17:13:08.274Z,76.04
2018-12-26T17:15:40.049Z,76.62
2018-12-26T17:18:11.735Z,76.22
2018-12-26T17:20:43.453Z,76.24
2018-12-26T17:23:15.176Z,75.83
2018-12-26T17:25:46.907Z,75.98
2018-12-26T17:28:18.683Z,75.77
2018-12-26T17:30:50.356Z,76.11
2018-12-26T17:33:22.122Z,76.32
2018-12-26T17:35:53.821Z,76.47
2018-12-26T17:38:25.511Z,75.90
2018-12-26T17:40:57.438Z,76.14
2018-12-26T17:43:29.788Z,76.47
2018-12-26T17:46:04.965Z,76.62
2018-12-26T17:48:37.859Z,76.46
2018-12-26T17:51:15.848Z,76.37
2018-12-26T17:54:43.233Z,76.29
2018-12-26T17:57:30.215Z,76.46
2018-12-26T18:00:49.237Z,76.08
2018-12-26T18:03:21.349Z,76.07
2018-12-26T18:05:54.639Z,76.02
2018-12-26T18:08:26.285Z,75.82
2018-12-26T18:10:58.056Z,76.10
2018-12-26T18:13:29.816Z,76.25
2018-12-26T18:16:02.643Z,75.45
2018-12-26T18:18:34.375Z,75.35
2018-12-26T18:21:07.494Z,76.63
2018-12-26T18:23:39.607Z,76.12
2018-12-26T18:26:11.394Z,75.80
2018-12-26T18:28:43.086Z,73.44
2018-12-26T18:31:22.020Z,72.01
2018-12-26T18:33:49.661Z,71.56
2018-12-26T18:39:35.080Z,71.17
2018-12-26T18:42:06.850Z,71.65
2018-12-26T18:44:41.263Z,71.95
2018-12-26T18:47:13.423Z,72.32
2018-12-26T18:49:49.422Z,72.57
2018-12-26T18:52:21.016Z,72.61
2018-12-26T18:54:52.820Z,72.55
2018-12-26T18:57:24.541Z,72.76
2018-12-26T18:59:56.191Z,72.48
2018-12-26T19:02:27.882Z,72.21
2018-12-26T19:04:59.543Z,71.86
2018-12-26T19:07:31.338Z,72.13
2018-12-26T19:10:03.275Z,71.84
2018-12-26T19:12:35.161Z,71.51
2018-12-26T19:15:07.832Z,71.51
2018-12-26T19:17:39.641Z,71.53
2018-12-26T19:20:17.013Z,71.31
2018-12-26T19:22:48.979Z,71.44
2018-12-26T19:25:40.447Z,71.51
2018-12-26T19:28:12.225Z,71.51
2018-12-26T19:30:43.932Z,72.05
2018-12-26T19:33:15.621Z,74.60
2018-12-26T19:35:47.255Z,75.61
2018-12-26T19:38:20.928Z,76.52
2018-12-26T19:40:52.741Z,77.08
2018-12-26T19:43:24.597Z,77.22
2018-12-26T19:45:56.310Z,77.50
2018-12-26T19:48:28.178Z,77.39
2018-12-26T19:51:00.102Z,77.38
2018-12-26T19:53:32.377Z,77.50
2018-12-26T19:56:04.058Z,77.85
2018-12-26T19:58:36.006Z,78.35
2018-12-26T20:01:07.676Z,78.27
2018-12-26T20:03:39.517Z,78.08
2018-12-26T20:06:11.221Z,78.07
2018-12-26T20:08:42.927Z,78.63
2018-12-26T20:11:14.479Z,78.58
2018-12-26T20:13:46.077Z,79.37
2018-12-26T20:16:17.977Z,79.32
2018-12-26T20:18:49.952Z,79.39
2018-12-26T20:21:21.909Z,79.84
2018-12-26T20:23:53.866Z,80.12
2018-12-26T20:26:25.742Z,79.78
2018-12-26T20:28:57.337Z,80.45
2018-12-26T20:31:28.968Z,80.33
2018-12-26T20:34:00.626Z,79.66
2018-12-26T20:36:32.240Z,79.69
2018-12-26T20:39:04.386Z,79.17
2018-12-26T20:41:36.148Z,79.48
2018-12-26T20:44:07.920Z,79.57
2018-12-26T20:46:39.898Z,79.41
2018-12-26T20:49:33.988Z,79.60
2018-12-26T20:52:10.383Z,79.25
2018-12-26T20:54:41.945Z,79.15
2018-12-26T20:57:13.880Z,78.93
2018-12-26T20:59:45.594Z,78.80
2018-12-26T21:02:17.309Z,79.38
2018-12-26T21:04:49.087Z,80.05
2018-12-26T21:07:20.780Z,79.57
2018-12-26T21:09:52.485Z,79.25
2018-12-26T21:12:24.073Z,79.09
2018-12-26T21:14:55.838Z,79.62
2018-12-26T21:17:27.620Z,79.52
2018-12-26T21:19:59.278Z,79.77
2018-12-26T21:22:30.970Z,80.12
2018-12-26T21:25:02.561Z,80.50
2018-12-26T21:27:34.699Z,80.35
2018-12-26T21:30:09.833Z,80.54
2018-12-26T21:32:42.584Z,80.59
2018-12-26T21:35:14.373Z,80.72
2018-12-26T21:37:46.039Z,81.43
2018-12-26T21:40:17.757Z,81.72
2018-12-26T21:42:49.523Z,81.46
2018-12-26T21:45:23.673Z,81.71
2018-12-26T21:47:54.375Z,81.37
2018-12-26T21:50:25.961Z,81.61
2018-12-26T21:52:57.535Z,81.72
2018-12-26T21:55:29.108Z,82.00
2018-12-26T21:58:00.762Z,81.83
2018-12-26T22:00:32.408Z,81.70
2018-12-26T22:03:04.066Z,81.62
2018-12-26T22:05:35.745Z,81.96
2018-12-26T22:08:07.441Z,82.02
2018-12-26T22:10:39.089Z,81.93
2018-12-26T22:13:10.827Z,81.83
2018-12-26T22:15:42.399Z,81.52
2018-12-26T22:18:14.087Z,81.55
2018-12-26T22:20:45.713Z,81.31
2018-12-26T22:23:17.309Z,81.14
2018-12-26T22:25:48.939Z,81.15
2018-12-26T22:28:20.578Z,81.37
2018-12-26T22:30:52.147Z,81.39
2018-12-26T22:33:23.907Z,81.32
2018-12-26T22:35:56.546Z,81.64
2018-12-26T22:38:28.143Z,81.47
2018-12-26T22:40:59.810Z,82.03
2018-12-26T22:43:31.430Z,81.79
2018-12-26T22:46:03.073Z,81.64
2018-12-26T22:48:36.330Z,81.76
2018-12-26T22:51:14.841Z,81.86
2018-12-26T22:53:46.682Z,81.84
2018-12-26T22:56:18.310Z,81.76
2018-12-26T22:58:49.907Z,81.72
2018-12-26T23:01:21.759Z,81.48
2018-12-26T23:03:53.568Z,81.85
2018-12-26T23:06:25.358Z,82.02
2018-12-26T23:08:56.945Z,81.99
2018-12-26T23:11:28.628Z,81.85
2018-12-26T23:14:01.426Z,81.80
2018-12-26T23:16:33.074Z,81.72
2018-12-26T23:19:04.699Z,81.86
2018-12-26T23:21:39.345Z,82.38
2018-12-26T23:24:11.185Z,82.71
2018-12-26T23:26:42.817Z,83.41
2018-12-26T23:29:14.515Z,83.58
2018-12-26T23:31:46.268Z,84.06
2018-12-26T23:34:17.952Z,84.39
2018-12-26T23:36:49.564Z,84.76
2018-12-26T23:39:21.464Z,84.84
2018-12-26T23:41:53.130Z,85.07
2018-12-26T23:44:25.458Z,85.09
2018-12-26T23:46:57.043Z,85.28
2018-12-26T23:49:28.683Z,85.31
2018-12-26T23:52:00.440Z,85.71
2018-12-26T23:54:32.105Z,85.98
2018-12-26T23:57:03.881Z,86.14
2018-12-26T23:59:36.684Z,86.51
